Aviation Digital Data Service (ADDS)

Output produced by METARs form (1742 UTC 03 December 2016)
found at http://aviationweather.gov/adds/metars/
 
KJAX 031723Z 0318/0418 06011KT P6SM FEW035 BKN120 
     FM040200 04004KT P6SM SCT030 BKN080 
     FM040700 06004KT P6SM BKN025 BKN080 
     FM041400 11012KT P6SM SCT030 BKN080